createdAt,value
2019-05-12T00:02:11.060Z,9.33
2019-05-12T00:04:42.845Z,9.30
2019-05-12T00:07:14.643Z,10.43
2019-05-12T00:09:47.963Z,9.67
2019-05-12T00:12:19.884Z,11.27
2019-05-12T00:14:51.625Z,11.43
2019-05-12T00:17:23.818Z,13.17
2019-05-12T00:19:58.353Z,12.90
2019-05-12T00:22:34.459Z,12.70
2019-05-12T00:25:08.626Z,13.33
2019-05-12T00:27:39.793Z,15.97
2019-05-12T00:30:31.213Z,15.73
2019-05-12T00:33:03.193Z,15.53
2019-05-12T00:35:38.124Z,15.73
2019-05-12T00:38:10.162Z,16.30
2019-05-12T00:40:42.030Z,17.67
2019-05-12T00:43:13.981Z,19.67
2019-05-12T00:45:48.084Z,20.67
2019-05-12T00:48:19.112Z,19.03
2019-05-12T00:50:50.861Z,18.50
2019-05-12T00:53:36.107Z,20.47
2019-05-12T00:55:57.918Z,23.03
2019-05-12T00:58:29.728Z,22.33
2019-05-12T01:01:01.712Z,23.20
2019-05-12T01:03:33.617Z,24.27
2019-05-12T01:06:05.366Z,27.53
2019-05-12T01:08:38.266Z,25.93
2019-05-12T01:11:10.388Z,25.60
2019-05-12T01:13:42.215Z,26.40
2019-05-12T01:16:13.852Z,25.30
2019-05-12T01:18:47.935Z,26.37
2019-05-12T01:21:19.113Z,23.70
2019-05-12T01:23:57.039Z,25.80
2019-05-12T01:26:24.449Z,24.80
2019-05-12T01:28:58.073Z,28.43
2019-05-12T01:31:32.522Z,25.23
2019-05-12T01:34:04.530Z,28.63
2019-05-12T01:36:38.104Z,26.43
2019-05-12T01:39:10.447Z,27.17
2019-05-12T01:41:42.144Z,26.90
2019-05-12T01:44:13.733Z,28.67
2019-05-12T01:46:45.421Z,25.70
2019-05-12T01:49:18.717Z,29.17
2019-05-12T01:51:50.812Z,29.83
2019-05-12T01:54:22.588Z,31.40
2019-05-12T01:56:54.397Z,30.63
2019-05-12T01:59:26.116Z,30.47
2019-05-12T02:01:58.226Z,26.53
2019-05-12T02:04:32.260Z,30.00
2019-05-12T02:07:08.230Z,29.00
2019-05-12T02:09:38.951Z,31.73
2019-05-12T02:12:10.717Z,29.83
2019-05-12T02:14:42.367Z,30.07
2019-05-12T02:17:14.140Z,29.63
2019-05-12T02:19:47.961Z,30.20
2019-05-12T02:22:19.095Z,31.83
2019-05-12T02:24:50.696Z,32.57
2019-05-12T02:27:22.542Z,29.20
2019-05-12T02:29:54.312Z,29.53
2019-05-12T02:32:35.555Z,28.37
2019-05-12T02:34:59.676Z,30.20
2019-05-12T02:37:35.418Z,31.60
2019-05-12T02:40:06.193Z,32.40
2019-05-12T02:42:38.232Z,29.90
2019-05-12T02:45:10.512Z,29.13
2019-05-12T02:47:45.381Z,31.67
2019-05-12T02:50:18.498Z,32.03
2019-05-12T02:52:50.311Z,28.50
2019-05-12T02:55:25.390Z,33.33
2019-05-12T02:57:58.981Z,30.50
2019-05-12T03:00:35.120Z,29.43
2019-05-12T03:03:08.581Z,32.77
2019-05-12T03:05:44.198Z,28.83
2019-05-12T03:08:15.574Z,26.77
2019-05-12T03:10:48.727Z,28.73
2019-05-12T03:13:20.503Z,33.83
2019-05-12T03:15:54.869Z,33.90
2019-05-12T03:18:26.318Z,28.23
2019-05-12T03:20:58.062Z,29.17
2019-05-12T03:23:29.790Z,29.60
2019-05-12T03:26:04.934Z,25.77
2019-05-12T03:28:35.727Z,31.50
2019-05-12T03:31:08.641Z,25.97
2019-05-12T03:33:46.032Z,30.97
2019-05-12T03:36:18.034Z,31.00
2019-05-12T03:38:48.011Z,28.47
2019-05-12T03:41:19.714Z,32.00
2019-05-12T03:43:54.841Z,27.67
2019-05-12T03:46:25.136Z,31.17
2019-05-12T03:48:57.081Z,27.77
2019-05-12T03:51:28.854Z,31.30
2019-05-12T03:54:00.609Z,27.90
2019-05-12T03:56:34.458Z,26.33
2019-05-12T03:59:05.872Z,27.67
2019-05-12T04:01:45.526Z,28.37
2019-05-12T04:04:17.288Z,31.20
2019-05-12T04:06:48.820Z,26.27
2019-05-12T04:09:20.742Z,28.00
2019-05-12T04:11:54.726Z,28.00
2019-05-12T04:14:25.920Z,29.40
2019-05-12T04:16:57.743Z,30.73
2019-05-12T04:19:29.747Z,30.27
2019-05-12T04:22:05.320Z,29.00
2019-05-12T04:24:35.885Z,31.50
2019-05-12T04:27:07.887Z,32.27
2019-05-12T04:29:39.698Z,28.33
2019-05-12T04:32:14.202Z,30.67
2019-05-12T04:34:45.522Z,34.73
2019-05-12T04:37:17.120Z,32.63
2019-05-12T04:39:49.287Z,32.50
2019-05-12T04:42:20.821Z,29.33
2019-05-12T04:44:55.275Z,29.93
2019-05-12T04:47:26.264Z,28.50
2019-05-12T04:49:57.965Z,28.77
2019-05-12T04:52:29.775Z,26.80
2019-05-12T04:55:04.456Z,31.57
2019-05-12T04:57:34.858Z,30.77
2019-05-12T05:00:07.198Z,28.47
2019-05-12T05:02:39.044Z,27.77
2019-05-12T05:05:14.236Z,28.87
2019-05-12T05:07:44.908Z,28.10
2019-05-12T05:10:16.752Z,27.87
2019-05-12T05:12:48.325Z,25.07
2019-05-12T05:15:20.266Z,29.93
2019-05-12T05:17:54.556Z,23.67
2019-05-12T05:20:25.868Z,24.93
2019-05-12T05:22:57.736Z,22.93
2019-05-12T05:25:29.656Z,30.30
2019-05-12T05:28:03.726Z,24.23
2019-05-12T05:30:34.941Z,22.80
2019-05-12T05:33:06.918Z,23.70
2019-05-12T05:35:39.862Z,25.33
2019-05-12T05:38:19.182Z,24.07
2019-05-12T05:40:47.619Z,24.37
2019-05-12T05:43:20.688Z,22.33
2019-05-12T05:45:56.106Z,26.57
2019-05-12T05:48:26.051Z,23.90
2019-05-12T05:50:59.940Z,22.30
2019-05-12T05:53:33.575Z,22.57
2019-05-12T05:56:05.604Z,21.50
2019-05-12T05:58:40.141Z,21.03
2019-05-12T06:01:13.506Z,24.43
2019-05-12T06:03:44.551Z,25.93
2019-05-12T06:06:17.640Z,20.50
2019-05-12T06:09:01.067Z,21.77
2019-05-12T06:11:34.566Z,21.03
2019-05-12T06:14:14.063Z,20.77
2019-05-12T06:16:43.369Z,19.07
2019-05-12T06:19:15.623Z,20.97
2019-05-12T06:21:47.491Z,20.50
2019-05-12T06:24:20.189Z,19.83
2019-05-12T06:26:57.774Z,18.13
2019-05-12T06:29:26.003Z,20.03
2019-05-12T06:31:59.958Z,20.67
2019-05-12T06:34:31.552Z,18.27
2019-05-12T06:37:12.153Z,16.63
2019-05-12T06:39:37.308Z,19.90
2019-05-12T06:42:14.497Z,19.83
2019-05-12T06:44:43.750Z,17.87
2019-05-12T06:47:16.163Z,18.77
2019-05-12T06:49:48.881Z,20.67
2019-05-12T06:52:23.703Z,19.13
2019-05-12T06:54:56.801Z,17.87
2019-05-12T06:57:40.179Z,18.87
2019-05-12T07:00:10.428Z,18.50
2019-05-12T07:02:49.954Z,17.87
2019-05-12T07:05:16.208Z,16.10
2019-05-12T07:07:48.428Z,16.60
2019-05-12T07:10:36.676Z,18.20
2019-05-12T07:13:01.490Z,15.77
2019-05-12T07:15:29.350Z,16.33
2019-05-12T07:18:06.443Z,16.43
2019-05-12T07:20:39.149Z,15.17
2019-05-12T07:23:11.416Z,14.93
2019-05-12T07:25:50.947Z,13.13
2019-05-12T07:28:23.711Z,14.93
2019-05-12T07:30:56.428Z,15.23
2019-05-12T07:33:32.867Z,14.50
2019-05-12T07:36:06.323Z,16.07
2019-05-12T07:38:38.630Z,17.00
2019-05-12T07:41:11.035Z,12.60
2019-05-12T07:43:44.995Z,12.60
2019-05-12T07:46:18.872Z,12.17
2019-05-12T07:48:51.138Z,13.17
2019-05-12T07:51:24.207Z,13.37
2019-05-12T07:53:59.014Z,12.20
2019-05-12T07:56:32.767Z,12.77
2019-05-12T07:59:04.344Z,13.93
2019-05-12T08:01:45.260Z,12.30
2019-05-12T08:04:09.818Z,12.17
2019-05-12T08:06:49.231Z,11.83
2019-05-12T08:09:24.026Z,11.77
2019-05-12T08:11:54.778Z,12.20
2019-05-12T08:14:29.396Z,11.60
2019-05-12T08:17:01.924Z,10.87
2019-05-12T08:19:33.871Z,11.40
2019-05-12T08:22:06.095Z,12.30
2019-05-12T08:24:43.620Z,9.00
2019-05-12T08:27:14.315Z,9.00
2019-05-12T08:29:45.248Z,8.40
2019-05-12T08:32:20.095Z,10.63
2019-05-12T08:34:50.967Z,9.27
2019-05-12T08:37:24.360Z,8.33
2019-05-12T08:40:03.390Z,8.77
2019-05-12T08:42:30.129Z,8.57
2019-05-12T08:45:04.090Z,8.33
2019-05-12T08:47:38.818Z,12.47
2019-05-12T08:50:09.298Z,13.70
2019-05-12T08:52:41.971Z,7.43
2019-05-12T08:55:16.830Z,8.40
2019-05-12T08:57:49.659Z,7.83
2019-05-12T09:00:39.646Z,8.20
2019-05-12T09:03:08.606Z,5.70
2019-05-12T09:05:40.877Z,6.90
2019-05-12T09:08:13.817Z,6.23
2019-05-12T09:10:45.986Z,11.83
2019-05-12T09:13:17.916Z,5.97
2019-05-12T09:15:50.016Z,9.60
2019-05-12T09:18:23.714Z,6.90
2019-05-12T09:20:55.933Z,6.63
2019-05-12T09:23:32.824Z,6.70
2019-05-12T09:26:03.728Z,6.87
2019-05-12T09:28:46.353Z,8.20
2019-05-12T09:31:09.238Z,9.20
2019-05-12T09:33:40.959Z,6.30
2019-05-12T09:36:16.676Z,9.20
2019-05-12T09:38:45.103Z,6.70
2019-05-12T09:41:17.024Z,13.10
2019-05-12T09:43:50.536Z,6.43
2019-05-12T09:46:23.319Z,6.10
2019-05-12T09:48:55.655Z,7.53
2019-05-12T09:51:32.860Z,6.27
2019-05-12T09:54:02.041Z,5.63
2019-05-12T09:56:34.357Z,8.97
2019-05-12T09:59:17.466Z,6.07
2019-05-12T10:01:42.939Z,6.83
2019-05-12T10:04:16.363Z,7.93
2019-05-12T10:06:47.078Z,8.87
2019-05-12T10:09:19.968Z,6.03
2019-05-12T10:12:00.252Z,5.87
2019-05-12T10:14:25.598Z,5.73
2019-05-12T10:16:57.489Z,4.17
2019-05-12T10:19:29.809Z,4.23
2019-05-12T10:22:01.805Z,4.40
2019-05-12T10:24:41.661Z,3.87
2019-05-12T10:27:07.621Z,11.67
2019-05-12T10:29:39.430Z,3.80
2019-05-12T10:32:13.213Z,4.77
2019-05-12T10:34:44.895Z,4.77
2019-05-12T10:37:19.208Z,4.50
2019-05-12T10:39:50.535Z,8.27
2019-05-12T10:42:24.327Z,5.07
2019-05-12T10:44:56.776Z,8.17
2019-05-12T10:47:28.701Z,5.40
2019-05-12T10:50:00.488Z,5.40
2019-05-12T10:52:35.055Z,4.03
2019-05-12T10:55:06.524Z,4.93
2019-05-12T10:57:38.448Z,3.83
2019-05-12T11:00:14.318Z,4.00
2019-05-12T11:02:46.177Z,5.13
2019-05-12T11:05:25.837Z,3.50
2019-05-12T11:07:53.968Z,4.03
2019-05-12T11:10:26.863Z,5.40
2019-05-12T11:12:59.094Z,4.40
2019-05-12T11:15:34.312Z,10.00
2019-05-12T11:18:20.654Z,3.50
2019-05-12T11:20:51.389Z,4.37
2019-05-12T11:23:24.433Z,5.70
2019-05-12T11:25:56.882Z,5.10
2019-05-12T11:28:28.796Z,5.60
2019-05-12T11:31:00.907Z,5.87
2019-05-12T11:33:34.169Z,4.00
2019-05-12T11:36:06.241Z,6.00
2019-05-12T11:38:38.214Z,4.07
2019-05-12T11:41:16.255Z,6.33
2019-05-12T11:43:44.096Z,7.57
2019-05-12T11:46:15.863Z,4.10
2019-05-12T11:48:50.249Z,3.80
2019-05-12T11:51:26.975Z,5.30
2019-05-12T11:53:55.073Z,4.43
2019-05-12T11:56:26.963Z,5.47
2019-05-12T11:58:58.811Z,3.40
2019-05-12T12:01:31.117Z,4.00
2019-05-12T12:04:10.755Z,4.20
2019-05-12T12:06:43.857Z,4.03
2019-05-12T12:09:18.876Z,5.23
2019-05-12T12:11:56.727Z,4.30
2019-05-12T12:14:23.852Z,6.20
2019-05-12T12:16:55.834Z,6.90
2019-05-12T12:19:34.927Z,5.00
2019-05-12T12:22:01.330Z,3.67
2019-05-12T12:24:33.687Z,3.87
2019-05-12T12:27:05.594Z,7.57
2019-05-12T12:29:38.019Z,4.20
2019-05-12T12:32:15.238Z,6.27
2019-05-12T12:34:44.043Z,4.07
2019-05-12T12:37:19.025Z,3.93
2019-05-12T12:39:49.832Z,5.63
2019-05-12T12:42:24.054Z,6.13
2019-05-12T12:44:58.671Z,5.50
2019-05-12T12:47:29.302Z,4.33
2019-05-12T12:50:01.449Z,8.23
2019-05-12T12:52:33.631Z,5.07
2019-05-12T12:55:08.464Z,4.53
2019-05-12T12:57:40.277Z,4.23
2019-05-12T13:00:17.787Z,3.80
2019-05-12T13:02:49.235Z,5.60
2019-05-12T13:05:20.785Z,4.50
2019-05-12T13:07:53.503Z,6.03
2019-05-12T13:10:25.505Z,5.00
2019-05-12T13:13:00.998Z,7.60
2019-05-12T13:15:31.317Z,3.63
2019-05-12T13:18:03.439Z,3.33
2019-05-12T13:20:35.428Z,4.53
2019-05-12T13:23:07.586Z,12.63
2019-05-12T13:25:47.628Z,3.63
2019-05-12T13:28:18.821Z,3.70
2019-05-12T13:30:49.608Z,6.33
2019-05-12T13:33:20.044Z,3.33
2019-05-12T13:35:55.633Z,5.13
2019-05-12T13:38:25.318Z,3.20
2019-05-12T13:40:57.594Z,6.67
2019-05-12T13:43:29.625Z,6.83
2019-05-12T13:46:01.602Z,3.87
2019-05-12T13:48:33.569Z,5.53
2019-05-12T13:51:11.584Z,4.93
2019-05-12T13:53:40.483Z,8.90
2019-05-12T13:56:13.686Z,4.47
2019-05-12T13:58:45.974Z,5.23
2019-05-12T14:01:20.562Z,4.13
2019-05-12T14:03:53.573Z,4.57
2019-05-12T14:06:32.002Z,3.73
2019-05-12T14:08:58.946Z,3.57
2019-05-12T14:11:31.167Z,3.27
2019-05-12T14:14:11.517Z,6.00
2019-05-12T14:16:36.967Z,5.20
2019-05-12T14:19:08.921Z,9.07
2019-05-12T14:21:48.151Z,4.57
2019-05-12T14:24:20.023Z,5.90
2019-05-12T14:26:53.382Z,4.73
2019-05-12T14:29:26.720Z,5.07
2019-05-12T14:32:02.396Z,4.47
2019-05-12T14:34:33.995Z,4.40
2019-05-12T14:37:10.243Z,9.83
2019-05-12T14:39:40.232Z,10.47
2019-05-12T14:42:13.643Z,8.80
2019-05-12T14:44:49.606Z,12.63
2019-05-12T14:47:30.143Z,6.30
2019-05-12T14:50:00.238Z,11.43
2019-05-12T14:52:33.318Z,14.77
2019-05-12T14:55:05.519Z,14.90
2019-05-12T14:57:39.355Z,11.30
2019-05-12T15:00:17.349Z,9.07
2019-05-12T15:02:45.499Z,9.73
2019-05-12T15:05:17.488Z,8.57
2019-05-12T15:07:53.487Z,7.70
2019-05-12T15:10:23.495Z,9.13
2019-05-12T15:12:55.637Z,10.53
2019-05-12T15:15:27.560Z,16.17
2019-05-12T15:18:03.669Z,10.83
2019-05-12T15:20:33.305Z,10.87
2019-05-12T15:23:05.221Z,16.30
2019-05-12T15:25:37.390Z,13.20
2019-05-12T15:28:09.579Z,14.60
2019-05-12T15:30:43.468Z,10.90
2019-05-12T15:33:15.337Z,16.40
2019-05-12T15:35:47.845Z,15.43
2019-05-12T15:38:19.881Z,16.90
2019-05-12T15:40:53.760Z,12.93
2019-05-12T15:43:26.071Z,9.40
2019-05-12T15:45:59.586Z,11.77
2019-05-12T15:48:34.027Z,9.80
2019-05-12T15:51:08.464Z,11.13
2019-05-12T15:53:38.998Z,10.47
2019-05-12T15:56:17.595Z,8.43
2019-05-12T15:58:44.727Z,10.03
2019-05-12T16:01:17.000Z,8.53
2019-05-12T16:03:49.699Z,9.00
2019-05-12T16:06:21.859Z,7.07
2019-05-12T16:08:53.706Z,7.97
2019-05-12T16:11:26.561Z,9.23
2019-05-12T16:13:59.620Z,12.07
2019-05-12T16:16:34.013Z,13.00
2019-05-12T16:19:05.184Z,14.10
2019-05-12T16:21:37.124Z,12.10
2019-05-12T16:24:11.335Z,10.27
2019-05-12T16:26:51.729Z,12.93
2019-05-12T16:29:16.821Z,15.07
2019-05-12T16:31:49.969Z,15.17
2019-05-12T16:34:22.102Z,12.90
2019-05-12T16:36:54.771Z,12.17
2019-05-12T16:39:30.279Z,14.70
2019-05-12T16:42:08.219Z,11.97
2019-05-12T16:44:34.843Z,15.40
2019-05-12T16:47:07.060Z,14.37
2019-05-12T16:49:39.030Z,13.90
2019-05-12T16:52:11.045Z,16.77
2019-05-12T16:54:43.998Z,16.57
2019-05-12T16:57:18.245Z,18.53
2019-05-12T16:59:53.409Z,12.47
2019-05-12T17:02:23.535Z,12.63
2019-05-12T17:04:56.724Z,14.23
2019-05-12T17:07:28.938Z,14.93
2019-05-12T17:10:02.988Z,23.40
2019-05-12T17:12:37.020Z,14.97
2019-05-12T17:15:08.259Z,16.10
2019-05-12T17:17:40.215Z,13.00
2019-05-12T17:20:13.827Z,17.47
2019-05-12T17:22:54.342Z,17.83
2019-05-12T17:25:20.039Z,22.83
2019-05-12T17:27:52.202Z,18.90
2019-05-12T17:30:24.355Z,18.73
2019-05-12T17:33:00.889Z,16.27
2019-05-12T17:35:31.942Z,15.70
2019-05-12T17:38:19.167Z,14.23
2019-05-12T17:40:44.521Z,21.57
2019-05-12T17:43:16.564Z,26.10
2019-05-12T17:45:50.473Z,23.17
2019-05-12T17:48:23.417Z,22.40
2019-05-12T17:50:56.147Z,18.47
2019-05-12T17:53:30.525Z,15.87
2019-05-12T17:56:04.611Z,15.27
2019-05-12T17:58:43.918Z,17.50
2019-05-12T18:01:09.107Z,16.53
2019-05-12T18:03:48.795Z,19.47
2019-05-12T18:06:14.896Z,16.63
2019-05-12T18:08:47.867Z,8.77
2019-05-12T18:11:19.922Z,13.27
2019-05-12T18:14:01.700Z,14.37
2019-05-12T18:16:25.133Z,18.33
2019-05-12T18:18:57.055Z,19.23
2019-05-12T18:21:31.213Z,18.77
2019-05-12T18:24:08.764Z,17.20
2019-05-12T18:26:35.718Z,17.03
2019-05-12T18:29:07.648Z,17.43
2019-05-12T18:31:39.497Z,20.43
2019-05-12T18:34:13.699Z,16.07
2019-05-12T18:36:49.085Z,18.57
2019-05-12T18:39:18.567Z,16.57
2019-05-12T18:41:50.559Z,18.27
2019-05-12T18:44:28.978Z,18.40
2019-05-12T18:46:56.354Z,15.30
2019-05-12T18:49:28.268Z,14.43
2019-05-12T18:52:00.483Z,22.93
2019-05-12T18:54:34.432Z,15.00
2019-05-12T18:57:07.394Z,16.90
2019-05-12T18:59:39.477Z,18.03
2019-05-12T19:02:14.632Z,16.63
2019-05-12T19:04:45.412Z,15.87
2019-05-12T19:07:17.312Z,13.83
2019-05-12T19:09:49.297Z,11.63
2019-05-12T19:12:31.762Z,15.07
2019-05-12T19:14:55.927Z,12.53
2019-05-12T19:17:28.199Z,14.87
2019-05-12T19:20:01.579Z,12.00
2019-05-12T19:22:33.966Z,12.63
2019-05-12T19:25:19.206Z,14.67
2019-05-12T19:28:05.699Z,11.70
2019-05-12T19:30:34.491Z,9.03
2019-05-12T19:33:10.664Z,11.27
2019-05-12T19:35:40.213Z,12.90
2019-05-12T19:38:15.057Z,11.67
2019-05-12T19:40:54.678Z,12.27
2019-05-12T19:43:19.883Z,12.07
2019-05-12T19:45:53.551Z,8.70
2019-05-12T19:48:35.189Z,9.80
2019-05-12T19:51:20.717Z,14.70
2019-05-12T19:53:40.909Z,10.50
2019-05-12T19:56:20.471Z,8.23
2019-05-12T19:58:53.812Z,13.17
2019-05-12T20:01:32.702Z,7.87
2019-05-12T20:04:00.415Z,8.33
2019-05-12T20:06:34.082Z,11.27
2019-05-12T20:09:10.845Z,11.00
2019-05-12T20:11:40.916Z,5.87
2019-05-12T20:14:19.008Z,7.97
2019-05-12T20:16:46.829Z,8.60
2019-05-12T20:19:19.856Z,7.83
2019-05-12T20:21:54.155Z,13.70
2019-05-12T20:24:25.765Z,11.37
2019-05-12T20:26:57.999Z,8.13
2019-05-12T20:29:33.188Z,9.63
2019-05-12T20:32:04.754Z,7.23
2019-05-12T20:34:48.524Z,5.60
2019-05-12T20:37:14.175Z,6.93
2019-05-12T20:39:44.688Z,10.23
2019-05-12T20:42:16.626Z,6.33
2019-05-12T20:44:51.243Z,8.07
2019-05-12T20:47:23.449Z,8.43
2019-05-12T20:49:55.806Z,5.43
2019-05-12T20:52:28.206Z,6.93
2019-05-12T20:55:00.070Z,8.13
2019-05-12T20:57:34.363Z,7.57
2019-05-12T21:00:08.127Z,7.93
2019-05-12T21:02:40.135Z,6.70
2019-05-12T21:05:16.439Z,7.17
2019-05-12T21:07:45.701Z,8.03
2019-05-12T21:10:19.831Z,7.93
2019-05-12T21:12:51.372Z,6.80
2019-05-12T21:15:29.354Z,6.57
2019-05-12T21:18:02.865Z,7.93
2019-05-12T21:20:30.613Z,5.90
2019-05-12T21:23:02.594Z,3.70
2019-05-12T21:25:34.612Z,6.27
2019-05-12T21:28:07.911Z,8.90
2019-05-12T21:30:42.328Z,7.20
2019-05-12T21:33:14.683Z,5.93
2019-05-12T21:35:47.054Z,6.37
2019-05-12T21:38:24.309Z,6.20
2019-05-12T21:40:52.640Z,4.13
2019-05-12T21:43:24.738Z,6.13
2019-05-12T21:46:01.035Z,4.17
2019-05-12T21:48:30.266Z,5.67
2019-05-12T21:51:04.224Z,5.13
2019-05-12T21:53:35.927Z,4.90
2019-05-12T21:56:07.984Z,5.33
2019-05-12T21:58:45.415Z,5.03
2019-05-12T22:01:14.208Z,5.10
2019-05-12T22:03:58.052Z,3.77
2019-05-12T22:06:24.642Z,3.63
2019-05-12T22:09:01.417Z,5.50
2019-05-12T22:11:34.606Z,6.17
2019-05-12T22:14:07.021Z,8.50
2019-05-12T22:16:45.372Z,5.80
2019-05-12T22:19:13.867Z,3.00
2019-05-12T22:21:49.339Z,4.97
2019-05-12T22:24:24.590Z,3.87
2019-05-12T22:26:54.380Z,2.90
2019-05-12T22:29:30.233Z,6.77
2019-05-12T22:32:00.193Z,4.37
2019-05-12T22:34:37.239Z,6.33
2019-05-12T22:37:05.401Z,4.70
2019-05-12T22:39:37.165Z,4.83
2019-05-12T22:42:11.713Z,7.20
2019-05-12T22:44:43.806Z,3.83
2019-05-12T22:47:17.541Z,7.67
2019-05-12T22:49:52.058Z,5.37
2019-05-12T22:52:23.941Z,5.47
2019-05-12T22:54:55.898Z,5.23
2019-05-12T22:57:29.201Z,3.37
2019-05-12T23:00:03.802Z,6.53
2019-05-12T23:02:44.512Z,6.47
2019-05-12T23:05:20.397Z,4.63
2019-05-12T23:07:49.557Z,4.77
2019-05-12T23:10:21.593Z,3.33
2019-05-12T23:12:59.597Z,5.27
2019-05-12T23:15:27.029Z,4.73
2019-05-12T23:17:58.901Z,3.73
2019-05-12T23:20:31.250Z,4.27
2019-05-12T23:23:09.106Z,4.60
2019-05-12T23:25:37.956Z,3.73
2019-05-12T23:28:10.653Z,2.60
2019-05-12T23:30:48.311Z,3.87
2019-05-12T23:33:16.189Z,4.03
2019-05-12T23:35:48.300Z,5.37
2019-05-12T23:38:21.101Z,4.97
2019-05-12T23:40:53.789Z,5.13
2019-05-12T23:43:23.991Z,3.03
2019-05-12T23:45:55.863Z,5.60
2019-05-12T23:48:27.568Z,3.07
2019-05-12T23:50:59.159Z,3.23
2019-05-12T23:53:33.664Z,2.53
2019-05-12T23:56:04.507Z,4.93
2019-05-12T23:58:36.026Z,4.40
